Time;durP1;ratioP1;P1;durP2;ratioP2;P2;SDS_P1;SDS_P2;PMS_P1;PMS_P2;Temp;Humidity;BMP_temperature;BMP_pressure;BME280_temperature;BME280_humidity;BME280_pressure;Samples;Min_cycle;Max_cycle;Signal;HPM_P1;HPM_P2
2021/12/19 00:00:55;;;;;;;46.63;27.77;;;4.10;99.90;;;;;;5071394;28;20475;-89
2021/12/19 00:03:37;;;;;;;45.63;26.20;;;4.00;99.90;;;;;;5075351;28;20439;-89
2021/12/19 00:08:58;;;;;;;46.90;28.27;;;4.00;99.90;;;;;;5030886;28;20422;-91
2021/12/19 00:11:26;;;;;;;48.03;25.23;;;4.00;99.90;;;;;;5073550;28;21270;-89
2021/12/19 00:13:54;;;;;;;41.80;24.80;;;4.00;99.90;;;;;;5077393;28;20450;-89
2021/12/19 00:16:21;;;;;;;41.37;24.87;;;4.10;99.90;;;;;;5067314;28;20443;-90
2021/12/19 00:18:50;;;;;;;41.03;27.10;;;4.00;99.90;;;;;;5067308;28;20447;-90
2021/12/19 00:21:18;;;;;;;50.17;27.13;;;4.00;99.90;;;;;;5066495;28;20464;-90
2021/12/19 00:23:48;;;;;;;50.07;27.07;;;4.00;99.90;;;;;;5069133;28;20439;-89
2021/12/19 00:26:18;;;;;;;43.43;25.93;;;4.10;99.90;;;;;;5067043;28;20428;-89
2021/12/19 00:28:46;;;;;;;40.87;24.03;;;4.10;99.90;;;;;;5065046;28;20789;-89
2021/12/19 00:31:16;;;;;;;42.83;27.10;;;4.10;99.90;;;;;;5062619;28;20463;-90
2021/12/19 00:33:44;;;;;;;45.83;28.03;;;4.10;99.90;;;;;;5063953;28;20955;-89
2021/12/19 00:36:11;;;;;;;50.40;27.60;;;4.10;99.90;;;;;;5075193;28;20427;-90
2021/12/19 00:38:39;;;;;;;45.83;26.63;;;4.10;99.90;;;;;;5070573;28;20471;-90
2021/12/19 00:41:07;;;;;;;46.30;26.37;;;4.10;99.90;;;;;;5072172;28;20446;-89
2021/12/19 00:43:45;;;;;;;43.63;26.00;;;4.00;99.90;;;;;;5067793;28;20439;-90
2021/12/19 00:46:14;;;;;;;60.77;32.27;;;4.10;99.90;;;;;;5082414;28;20439;-90
2021/12/19 00:48:43;;;;;;;47.27;28.03;;;4.10;99.90;;;;;;5069308;28;20451;-89
2021/12/19 00:51:14;;;;;;;46.40;26.47;;;4.10;99.90;;;;;;5069455;28;20474;-89
2021/12/19 00:53:42;;;;;;;50.13;27.10;;;4.00;99.90;;;;;;5069475;28;20538;-89
2021/12/19 00:56:09;;;;;;;47.23;27.60;;;4.10;99.90;;;;;;5073546;28;20431;-89
2021/12/19 00:58:37;;;;;;;52.93;29.80;;;4.10;99.90;;;;;;5075688;28;20454;-89
2021/12/19 01:01:09;;;;;;;47.17;28.00;;;4.00;99.90;;;;;;5076332;28;20463;-90
2021/12/19 01:03:37;;;;;;;47.10;28.10;;;4.00;99.90;;;;;;5072339;28;20444;-89
2021/12/19 01:06:07;;;;;;;56.07;30.90;;;4.00;99.90;;;;;;5074509;28;20440;-89
2021/12/19 01:08:33;;;;;;;50.37;30.13;;;4.00;99.90;;;;;;5072931;28;20458;-89
2021/12/19 01:11:00;;;;;;;47.87;26.77;;;4.00;99.90;;;;;;5062568;28;20486;-88
2021/12/19 01:13:27;;;;;;;50.27;28.10;;;4.00;99.90;;;;;;5064781;28;20480;-89
2021/12/19 01:15:57;;;;;;;51.23;29.10;;;3.90;99.90;;;;;;5067448;28;20454;-89
2021/12/19 01:18:24;;;;;;;43.97;27.80;;;4.00;99.90;;;;;;5066533;28;20827;-89
2021/12/19 01:20:51;;;;;;;48.43;29.87;;;4.00;99.90;;;;;;5062518;28;20479;-89
2021/12/19 01:23:18;;;;;;;47.53;27.10;;;4.00;99.90;;;;;;5066999;28;20442;-89
2021/12/19 01:25:44;;;;;;;46.50;27.17;;;4.00;99.90;;;;;;5065805;28;20454;-90
2021/12/19 01:28:11;;;;;;;61.07;31.63;;;4.00;99.90;;;;;;5065537;28;20440;-89
2021/12/19 01:30:38;;;;;;;53.17;29.20;;;4.00;99.90;;;;;;5067478;28;20471;-89
2021/12/19 01:33:07;;;;;;;50.87;30.10;;;4.00;99.90;;;;;;5066585;28;20483;-89
2021/12/19 01:35:34;;;;;;;45.83;28.13;;;4.10;99.90;;;;;;5074735;28;20455;-88
2021/12/19 01:38:01;;;;;;;49.30;29.00;;;4.10;99.90;;;;;;5083814;28;20433;-90
2021/12/19 01:40:28;;;;;;;52.43;31.47;;;4.00;99.90;;;;;;5079822;28;20433;-88
2021/12/19 01:42:57;;;;;;;55.30;29.70;;;4.00;99.90;;;;;;5086572;28;20436;-89
2021/12/19 01:45:27;;;;;;;47.07;27.27;;;4.10;99.90;;;;;;5090052;28;20433;-89
2021/12/19 01:47:54;;;;;;;49.73;28.97;;;4.10;99.90;;;;;;5068673;28;20436;-89
2021/12/19 01:50:23;;;;;;;51.17;28.23;;;4.00;99.90;;;;;;5066406;28;20481;-89
2021/12/19 01:52:50;;;;;;;50.70;28.53;;;4.10;99.90;;;;;;5064110;28;20484;-90
2021/12/19 01:55:18;;;;;;;57.70;30.73;;;4.10;99.90;;;;;;5066848;28;20443;-89
2021/12/19 01:57:45;;;;;;;48.20;27.93;;;4.10;99.90;;;;;;5067572;28;20447;-89
2021/12/19 02:00:20;;;;;;;45.87;27.27;;;4.20;99.90;;;;;;5078655;28;20459;-88
2021/12/19 02:02:47;;;;;;;50.33;27.17;;;4.20;99.90;;;;;;5081999;28;20460;-89
2021/12/19 02:05:13;;;;;;;45.67;28.30;;;4.20;99.90;;;;;;5075928;28;20454;-89
2021/12/19 02:07:46;;;;;;;47.30;26.93;;;4.20;99.90;;;;;;5076977;28;20578;-89
2021/12/19 02:10:13;;;;;;;51.30;28.70;;;4.20;99.90;;;;;;5073572;28;20460;-89
2021/12/19 02:12:40;;;;;;;46.93;27.80;;;4.20;99.90;;;;;;5068608;28;20474;-90
2021/12/19 02:15:07;;;;;;;52.77;28.20;;;4.20;99.90;;;;;;5067524;28;20481;-89
2021/12/19 02:17:34;;;;;;;52.30;28.23;;;4.30;99.90;;;;;;5067185;28;20498;-90
2021/12/19 02:20:01;;;;;;;45.43;28.60;;;4.20;99.90;;;;;;5070047;28;20475;-90
2021/12/19 02:22:29;;;;;;;47.70;25.63;;;4.30;99.90;;;;;;5080485;28;20447;-89
2021/12/19 02:24:56;;;;;;;47.67;27.87;;;4.30;99.90;;;;;;5085194;28;20435;-89
2021/12/19 02:27:28;;;;;;;42.27;26.70;;;4.30;99.90;;;;;;5089607;28;20435;-89
2021/12/19 02:29:55;;;;;;;52.50;31.00;;;4.30;99.90;;;;;;5084163;28;20469;-90
2021/12/19 02:32:27;;;;;;;48.37;28.50;;;4.20;99.90;;;;;;5063783;28;20480;-89
2021/12/19 02:34:56;;;;;;;51.73;27.27;;;4.20;99.90;;;;;;5080810;28;20511;-89
2021/12/19 02:37:52;;;;;;;56.03;30.50;;;4.20;99.90;;;;;;5064294;28;20937;-89
2021/12/19 02:40:34;;;;;;;55.97;27.70;;;4.20;99.90;;;;;;5067089;28;20474;-89
2021/12/19 02:48:31;;;;;;;56.73;30.57;;;4.10;99.90;;;;;;5062973;28;20423;-90
2021/12/19 02:50:58;;;;;;;54.23;28.87;;;4.10;99.90;;;;;;5064461;28;20464;-90
2021/12/19 02:53:30;;;;;;;52.20;30.03;;;4.10;99.90;;;;;;5069377;28;20494;-89
2021/12/19 02:55:58;;;;;;;56.70;28.63;;;4.10;99.90;;;;;;5061775;28;20440;-89
2021/12/19 02:58:25;;;;;;;50.70;29.17;;;4.10;99.90;;;;;;5066211;28;20444;-89
2021/12/19 03:00:53;;;;;;;52.27;29.90;;;4.10;99.90;;;;;;5078811;28;20462;-90
2021/12/19 03:03:20;;;;;;;53.47;30.43;;;4.10;99.90;;;;;;5063563;28;20531;-89
2021/12/19 03:05:47;;;;;;;51.60;28.23;;;4.10;99.90;;;;;;5062944;28;20448;-90
2021/12/19 03:08:14;;;;;;;55.23;29.67;;;4.20;99.90;;;;;;5062729;28;20440;-89
2021/12/19 03:13:33;;;;;;;51.60;27.83;;;4.20;99.90;;;;;;5048073;28;20510;-90
2021/12/19 03:18:45;;;;;;;47.63;26.87;;;4.20;99.90;;;;;;5064053;28;20496;-88
2021/12/19 03:21:14;;;;;;;45.73;26.50;;;4.10;99.90;;;;;;5064980;28;20468;-89
2021/12/19 03:23:51;;;;;;;50.07;26.97;;;4.10;99.90;;;;;;5085258;28;20619;-88
2021/12/19 03:26:18;;;;;;;47.27;25.03;;;4.10;99.90;;;;;;5076124;28;20447;-90
2021/12/19 03:28:46;;;;;;;51.50;26.63;;;4.10;99.90;;;;;;5065132;28;20455;-89
2021/12/19 03:31:12;;;;;;;45.67;25.80;;;4.10;99.90;;;;;;5069624;28;20476;-89
2021/12/19 03:33:47;;;;;;;55.57;29.20;;;4.10;99.90;;;;;;5081872;28;20476;-88
2021/12/19 03:36:13;;;;;;;62.43;29.80;;;4.00;99.90;;;;;;5072470;28;20441;-89
2021/12/19 03:38:43;;;;;;;48.60;26.07;;;4.00;99.90;;;;;;5067416;28;20425;-89
2021/12/19 03:41:17;;;;;;;41.30;25.33;;;4.00;99.90;;;;;;5080606;28;20483;-89
2021/12/19 03:43:44;;;;;;;44.13;23.93;;;4.00;99.90;;;;;;5082635;28;20430;-88
2021/12/19 03:46:13;;;;;;;46.43;23.60;;;4.10;99.90;;;;;;5081127;28;20912;-89
2021/12/19 03:48:40;;;;;;;50.63;26.40;;;4.10;99.90;;;;;;5079684;28;20439;-89
2021/12/19 03:51:07;;;;;;;46.20;25.07;;;4.10;99.90;;;;;;5076781;28;20457;-89
2021/12/19 03:53:35;;;;;;;46.27;24.53;;;4.10;99.90;;;;;;5082030;28;20479;-89
2021/12/19 03:56:02;;;;;;;55.13;26.90;;;4.10;99.90;;;;;;5087663;28;20427;-89
2021/12/19 03:58:30;;;;;;;42.60;24.33;;;4.10;99.90;;;;;;5080576;28;20431;-89
2021/12/19 04:00:59;;;;;;;46.83;23.77;;;4.20;99.90;;;;;;5079436;28;20519;-89
2021/12/19 04:03:29;;;;;;;43.53;23.73;;;4.20;99.90;;;;;;5067965;28;20521;-89
2021/12/19 04:05:56;;;;;;;38.50;22.13;;;4.20;99.90;;;;;;5063578;28;20453;-90
2021/12/19 04:08:23;;;;;;;41.67;22.60;;;4.20;99.90;;;;;;5064351;28;20951;-90
2021/12/19 04:10:52;;;;;;;39.63;21.17;;;4.20;99.90;;;;;;5062030;28;20474;-90
2021/12/19 04:13:20;;;;;;;35.40;21.33;;;4.20;99.90;;;;;;5063473;28;21002;-90
2021/12/19 04:15:48;;;;;;;41.80;22.67;;;4.20;99.90;;;;;;5062520;28;20433;-90
2021/12/19 04:18:15;;;;;;;32.50;18.87;;;4.20;99.90;;;;;;5060505;28;20571;-90
2021/12/19 04:20:43;;;;;;;28.73;18.40;;;4.20;99.90;;;;;;5061534;28;20473;-90
2021/12/19 04:23:10;;;;;;;31.20;18.20;;;4.20;99.90;;;;;;5061618;28;20442;-90
2021/12/19 04:25:37;;;;;;;33.17;18.40;;;4.20;99.90;;;;;;5066999;28;20453;-91
2021/12/19 04:28:04;;;;;;;35.40;18.27;;;4.30;99.90;;;;;;5061994;28;20454;-90
2021/12/19 04:30:31;;;;;;;37.03;20.27;;;4.30;99.90;;;;;;5063079;28;20513;-90
2021/12/19 04:33:01;;;;;;;37.50;19.87;;;4.30;99.90;;;;;;5064267;28;20574;-90
2021/12/19 04:35:31;;;;;;;36.60;20.20;;;4.30;99.90;;;;;;5068623;28;20448;-90
2021/12/19 04:40:57;;;;;;;35.80;19.20;;;4.30;99.90;;;;;;5070362;28;20448;-90
2021/12/19 04:44:22;;;;;;;36.90;20.83;;;4.30;99.90;;;;;;5067321;28;20446;-90
2021/12/19 04:52:26;;;;;;;35.00;18.20;;;4.30;99.90;;;;;;5065956;28;20488;-90
2021/12/19 04:55:14;;;;;;;26.17;17.63;;;4.30;99.90;;;;;;5065295;28;20454;-90
2021/12/19 04:57:46;;;;;;;31.80;19.30;;;4.20;99.90;;;;;;5064833;28;20467;-90
2021/12/19 05:00:18;;;;;;;30.07;16.87;;;4.20;99.90;;;;;;5064926;28;20582;-90
2021/12/19 05:02:50;;;;;;;24.93;14.57;;;4.20;99.90;;;;;;5064086;28;20460;-90
2021/12/19 05:05:46;;;;;;;29.83;15.63;;;4.20;99.90;;;;;;5062797;28;20447;-90
2021/12/19 05:14:09;;;;;;;34.87;16.90;;;4.20;99.90;;;;;;5065627;28;21027;-90
2021/12/19 05:16:38;;;;;;;28.67;16.20;;;4.30;99.90;;;;;;5064583;28;20452;-90
2021/12/19 05:19:10;;;;;;;29.77;15.47;;;4.20;99.90;;;;;;5066905;28;20493;-90
2021/12/19 05:21:40;;;;;;;28.43;16.50;;;4.20;99.90;;;;;;5063672;28;20532;-90
2021/12/19 05:26:49;;;;;;;31.50;18.00;;;4.10;99.90;;;;;;5082478;28;20677;-89
2021/12/19 05:29:17;;;;;;;29.63;16.40;;;4.10;99.90;;;;;;5085495;28;20447;-89
2021/12/19 05:31:45;;;;;;;28.97;15.43;;;4.10;99.90;;;;;;5065947;28;20442;-89
2021/12/19 05:34:12;;;;;;;24.77;15.50;;;4.10;99.90;;;;;;5067348;28;20495;-89
2021/12/19 05:45:14;;;;;;;27.67;15.77;;;4.10;99.90;;;;;;5049536;28;20430;-90
2021/12/19 05:47:42;;;;;;;29.20;15.80;;;4.10;99.90;;;;;;5072363;28;20447;-90
2021/12/19 05:50:10;;;;;;;28.33;17.10;;;4.20;99.90;;;;;;5066814;28;20467;-89
2021/12/19 05:52:36;;;;;;;28.63;14.80;;;4.10;99.90;;;;;;5065038;28;20493;-89
2021/12/19 05:55:04;;;;;;;31.70;15.40;;;4.10;99.90;;;;;;5063791;28;20476;-90
2021/12/19 05:57:33;;;;;;;23.93;13.03;;;4.20;99.90;;;;;;5063377;28;20873;-90
2021/12/19 05:59:59;;;;;;;27.10;14.27;;;4.10;99.90;;;;;;5063312;28;20471;-89
2021/12/19 06:02:27;;;;;;;22.40;13.63;;;4.10;99.90;;;;;;5062853;28;20441;-90
2021/12/19 06:04:54;;;;;;;24.63;13.37;;;4.10;99.90;;;;;;5063723;28;20452;-90
2021/12/19 06:07:20;;;;;;;23.47;12.30;;;4.10;99.90;;;;;;5068729;28;20461;-90
2021/12/19 06:09:47;;;;;;;23.80;12.60;;;4.10;99.90;;;;;;5085567;28;20449;-90
2021/12/19 06:12:14;;;;;;;21.60;11.53;;;4.10;99.90;;;;;;5065006;28;20494;-90
2021/12/19 06:14:42;;;;;;;21.40;14.03;;;4.10;99.90;;;;;;5064071;28;20490;-90
2021/12/19 06:17:08;;;;;;;23.10;12.70;;;4.20;99.90;;;;;;5065704;28;20477;-90
2021/12/19 06:19:36;;;;;;;25.37;12.93;;;4.10;99.90;;;;;;5064456;28;20472;-89
2021/12/19 06:22:04;;;;;;;22.77;12.33;;;4.10;99.90;;;;;;5062391;28;21023;-90
2021/12/19 06:24:31;;;;;;;24.17;13.40;;;4.10;99.90;;;;;;5063902;28;20526;-90
2021/12/19 06:26:59;;;;;;;20.60;11.97;;;4.10;99.90;;;;;;5068757;28;20431;-90
2021/12/19 06:29:27;;;;;;;23.90;13.00;;;4.10;99.90;;;;;;5078513;28;20444;-90
2021/12/19 06:31:55;;;;;;;18.07;10.27;;;4.20;99.90;;;;;;5077643;28;20455;-90
2021/12/19 06:34:21;;;;;;;16.93;10.17;;;4.20;99.90;;;;;;5085230;28;20666;-89
2021/12/19 06:36:49;;;;;;;12.30;8.30;;;4.10;99.90;;;;;;5078208;28;20451;-90
2021/12/19 06:39:15;;;;;;;8.20;5.57;;;4.10;99.90;;;;;;5066286;28;20448;-90
2021/12/19 06:41:42;;;;;;;10.57;6.00;;;4.10;99.90;;;;;;5066584;28;20434;-89
2021/12/19 06:44:09;;;;;;;12.97;7.80;;;3.90;99.90;;;;;;5069187;28;20448;-90
2021/12/19 06:46:35;;;;;;;15.93;9.37;;;3.90;99.90;;;;;;5067233;28;20949;-90
2021/12/19 06:49:04;;;;;;;16.30;8.57;;;4.00;99.90;;;;;;5064351;28;20427;-90
2021/12/19 06:51:31;;;;;;;13.53;8.30;;;4.00;99.90;;;;;;5063488;28;20473;-90
2021/12/19 06:53:58;;;;;;;14.37;9.20;;;3.90;99.90;;;;;;5063830;28;20491;-89
2021/12/19 06:56:25;;;;;;;18.33;10.70;;;3.80;99.90;;;;;;5062864;28;20449;-90
2021/12/19 06:58:52;;;;;;;17.90;9.90;;;3.80;99.90;;;;;;5076218;28;20524;-89
2021/12/19 07:01:18;;;;;;;17.50;9.43;;;3.70;99.90;;;;;;5089458;28;20466;-89
2021/12/19 07:03:45;;;;;;;15.53;9.57;;;3.70;99.90;;;;;;5066549;28;20441;-90
2021/12/19 07:06:13;;;;;;;18.07;10.30;;;3.70;99.90;;;;;;5065158;28;20448;-89
2021/12/19 07:08:40;;;;;;;20.17;11.50;;;3.70;99.90;;;;;;5062702;28;20482;-90
2021/12/19 07:11:07;;;;;;;13.33;9.47;;;3.70;99.90;;;;;;5063673;28;21004;-90
2021/12/19 07:13:33;;;;;;;19.67;10.43;;;3.70;99.90;;;;;;5081313;28;20554;-89
2021/12/19 07:16:00;;;;;;;20.70;11.17;;;3.60;99.90;;;;;;5068503;28;20451;-90
2021/12/19 07:18:27;;;;;;;19.70;10.40;;;3.60;99.90;;;;;;5083218;28;20468;-89
2021/12/19 07:20:53;;;;;;;17.57;9.90;;;3.60;99.90;;;;;;5071860;28;20473;-90
2021/12/19 07:23:22;;;;;;;17.90;10.17;;;3.60;99.90;;;;;;5065005;28;20452;-90
2021/12/19 07:25:49;;;;;;;17.13;10.00;;;3.60;99.90;;;;;;5066480;28;20838;-90
2021/12/19 07:28:17;;;;;;;17.63;10.27;;;3.50;99.90;;;;;;5062554;28;20447;-90
2021/12/19 07:30:43;;;;;;;16.10;10.10;;;3.50;99.90;;;;;;5093497;22;20498;-86
2021/12/19 07:33:12;;;;;;;18.67;9.93;;;3.40;99.90;;;;;;5100797;28;20449;-86
2021/12/19 07:35:42;;;;;;;16.17;9.70;;;3.50;99.90;;;;;;5096709;28;20477;-86
2021/12/19 07:38:11;;;;;;;19.10;10.90;;;3.50;99.90;;;;;;5096766;28;20447;-87
2021/12/19 07:40:46;;;;;;;16.67;10.30;;;3.50;99.90;;;;;;5107149;28;20517;-86
2021/12/19 07:43:13;;;;;;;22.17;11.80;;;3.50;99.90;;;;;;5110236;28;20451;-87
2021/12/19 07:45:40;;;;;;;17.97;10.10;;;3.40;99.90;;;;;;5084323;28;20443;-87
2021/12/19 07:48:07;;;;;;;16.03;9.20;;;3.40;99.90;;;;;;5057798;28;20446;-87
2021/12/19 07:50:34;;;;;;;15.87;9.00;;;3.50;99.90;;;;;;5057921;28;20466;-87
2021/12/19 07:53:01;;;;;;;19.80;10.73;;;3.40;99.90;;;;;;5095765;28;20442;-87
2021/12/19 07:55:28;;;;;;;14.33;9.33;;;3.40;99.90;;;;;;5084880;28;20826;-87
2021/12/19 07:57:56;;;;;;;14.90;8.63;;;3.40;99.90;;;;;;5068024;28;20445;-87
2021/12/19 08:00:23;;;;;;;14.65;8.90;;;3.30;99.90;;;;;;5072702;28;20472;-86
2021/12/19 08:02:51;;;;;;;14.80;8.70;;;3.30;99.90;;;;;;5086557;28;20202;-86
2021/12/19 08:05:19;;;;;;;18.83;10.27;;;3.40;99.90;;;;;;5070092;28;20437;-86
2021/12/19 08:07:48;;;;;;;14.02;8.40;;;3.30;99.90;;;;;;5104023;28;20446;-86
2021/12/19 08:11:39;;;;;;;14.87;8.33;;;3.30;99.90;;;;;;5113840;28;20737;-86
2021/12/19 08:13:06;;;;;;;16.13;8.80;;;3.30;99.90;;;;;;5090075;28;20443;-87
2021/12/19 08:15:34;;;;;;;14.70;8.03;;;3.40;99.90;;;;;;5056398;28;20480;-87
2021/12/19 08:18:01;;;;;;;11.40;7.57;;;3.40;99.90;;;;;;5055477;28;20461;-87
2021/12/19 08:20:28;;;;;;;12.68;7.50;;;3.40;99.90;;;;;;5055776;28;20471;-87
2021/12/19 08:22:56;;;;;;;13.50;7.43;;;3.40;99.90;;;;;;5068387;28;20196;-87
2021/12/19 08:25:24;;;;;;;11.47;7.47;;;3.40;99.90;;;;;;5097065;28;20817;-87
2021/12/19 08:27:50;;;;;;;14.07;8.60;;;3.40;99.90;;;;;;5089423;28;20460;-87
2021/12/19 08:30:20;;;;;;;16.50;7.90;;;3.40;99.90;;;;;;5059622;28;20479;-87
2021/12/19 08:32:47;;;;;;;14.07;7.67;;;3.50;99.90;;;;;;5090043;28;20450;-87
2021/12/19 08:35:16;;;;;;;10.83;7.23;;;3.50;99.90;;;;;;5097541;28;20596;-87
2021/12/19 08:37:42;;;;;;;12.73;7.90;;;3.50;99.90;;;;;;5096010;28;20451;-86
2021/12/19 08:40:11;;;;;;;11.75;6.75;;;3.50;99.90;;;;;;5095943;28;20975;-86
2021/12/19 08:42:38;;;;;;;9.67;6.30;;;3.50;99.90;;;;;;5075760;28;20186;-87
2021/12/19 08:45:06;;;;;;;10.80;6.97;;;3.60;99.90;;;;;;5057268;28;20445;-87
2021/12/19 08:47:35;;;;;;;13.90;7.40;;;3.70;99.90;;;;;;5065995;28;20474;-87
2021/12/19 08:50:01;;;;;;;12.30;6.87;;;3.70;99.90;;;;;;5057666;28;20468;-86
2021/12/19 08:52:28;;;;;;;12.60;7.50;;;3.70;99.90;;;;;;5094318;28;20447;-86
2021/12/19 08:54:55;;;;;;;9.13;5.10;;;3.70;99.90;;;;;;5096734;28;20936;-88
2021/12/19 08:57:22;;;;;;;12.33;7.07;;;3.80;99.90;;;;;;5097708;28;20450;-86
2021/12/19 08:59:48;;;;;;;10.80;7.00;;;3.80;99.90;;;;;;5098711;28;20446;-86
2021/12/19 09:02:15;;;;;;;10.83;7.00;;;3.90;99.90;;;;;;5067914;28;20956;-87
2021/12/19 09:04:43;;;;;;;10.27;7.00;;;3.90;99.90;;;;;;5060654;28;20444;-87
2021/12/19 09:07:10;;;;;;;9.00;5.97;;;3.90;99.90;;;;;;5064733;28;20451;-87
2021/12/19 09:09:37;;;;;;;10.93;6.10;;;3.90;99.90;;;;;;5058659;28;20459;-87
2021/12/19 09:12:04;;;;;;;10.83;7.47;;;4.00;99.90;;;;;;5059534;28;20440;-88
2021/12/19 09:14:31;;;;;;;8.93;5.90;;;4.00;99.90;;;;;;5057740;28;20476;-87
2021/12/19 09:16:57;;;;;;;10.83;6.43;;;4.00;99.90;;;;;;5064154;28;20461;-89
2021/12/19 09:19:25;;;;;;;9.63;6.00;;;4.00;99.90;;;;;;5093534;28;20452;-88
2021/12/19 09:21:53;;;;;;;12.33;6.33;;;4.10;99.90;;;;;;5099285;28;20473;-85
2021/12/19 09:24:20;;;;;;;10.80;5.80;;;4.10;99.90;;;;;;5101257;28;20441;-87
2021/12/19 09:26:48;;;;;;;9.00;6.70;;;4.10;99.90;;;;;;5099099;28;20454;-87
2021/12/19 09:29:15;;;;;;;7.87;7.07;;;4.20;99.90;;;;;;5079838;28;20451;-87
2021/12/19 09:31:42;;;;;;;8.70;6.70;;;4.20;99.90;;;;;;5081858;28;20479;-87
2021/12/19 09:34:08;;;;;;;8.97;5.90;;;4.20;99.90;;;;;;5091840;28;20424;-86
2021/12/19 09:36:36;;;;;;;8.93;5.20;;;4.20;99.90;;;;;;5084003;28;20449;-88
2021/12/19 09:39:06;;;;;;;9.63;4.57;;;4.30;99.90;;;;;;5062447;28;20435;-89
2021/12/19 09:41:36;;;;;;;8.00;5.80;;;4.30;99.90;;;;;;5060680;28;20468;-87
2021/12/19 09:44:05;;;;;;;10.40;5.90;;;4.30;99.90;;;;;;5071937;28;20439;-87
2021/12/19 09:46:36;;;;;;;8.57;5.10;;;4.30;99.90;;;;;;5078344;28;20420;-86
2021/12/19 09:49:05;;;;;;;8.50;5.90;;;4.40;99.90;;;;;;5077898;28;20455;-87
2021/12/19 09:51:32;;;;;;;7.53;4.70;;;4.40;99.90;;;;;;5077046;28;20466;-87
2021/12/19 09:53:59;;;;;;;5.23;4.10;;;4.50;99.90;;;;;;5075463;28;20432;-86
2021/12/19 09:56:27;;;;;;;7.60;4.53;;;4.50;99.90;;;;;;5072860;28;20461;-87
2021/12/19 09:58:54;;;;;;;4.70;3.90;;;4.60;99.90;;;;;;5095820;28;20450;-87
2021/12/19 10:01:21;;;;;;;5.40;3.77;;;4.60;99.90;;;;;;5101185;28;20470;-87
2021/12/19 10:03:47;;;;;;;5.07;3.27;;;4.70;99.90;;;;;;5087674;28;20861;-87
2021/12/19 10:06:18;;;;;;;4.97;3.50;;;4.80;99.90;;;;;;5076620;28;20442;-87
2021/12/19 10:08:46;;;;;;;5.37;3.87;;;4.80;99.90;;;;;;5083508;28;20451;-88
2021/12/19 10:11:34;;;;;;;3.80;3.43;;;4.80;99.90;;;;;;5090052;28;20466;-86
2021/12/19 10:14:01;;;;;;;4.70;3.80;;;4.80;99.90;;;;;;5084744;28;20440;-87
2021/12/19 10:16:29;;;;;;;4.77;3.40;;;4.80;99.90;;;;;;5097306;28;20459;-86
2021/12/19 10:18:58;;;;;;;2.90;2.60;;;4.80;99.90;;;;;;5080707;28;20436;-86
2021/12/19 10:21:27;;;;;;;5.80;5.30;;;4.70;99.90;;;;;;5079360;28;20463;-90
2021/12/19 10:23:59;;;;;;;4.13;3.67;;;4.80;99.90;;;;;;5067200;28;20474;-87
2021/12/19 10:26:42;;;;;;;5.97;3.60;;;4.90;99.90;;;;;;5064693;28;20452;-87
2021/12/19 10:29:10;;;;;;;3.67;3.00;;;4.80;99.90;;;;;;5070466;28;20423;-87
2021/12/19 10:31:37;;;;;;;3.53;3.20;;;4.60;99.90;;;;;;5064937;28;20464;-87
2021/12/19 10:34:22;;;;;;;4.17;2.90;;;4.70;99.90;;;;;;5066097;28;20438;-87
2021/12/19 10:36:49;;;;;;;4.97;3.23;;;4.70;99.90;;;;;;5060601;28;20443;-86
2021/12/19 10:39:19;;;;;;;5.93;3.60;;;4.70;99.90;;;;;;5062475;28;20798;-87
2021/12/19 10:41:58;;;;;;;5.40;3.53;;;4.80;99.90;;;;;;5066162;28;20467;-87
2021/12/19 10:47:25;;;;;;;6.63;4.60;;;4.90;99.90;;;;;;5070225;28;20473;-86
2021/12/19 10:49:52;;;;;;;3.53;2.70;;;4.90;99.90;;;;;;5062448;28;20442;-88
2021/12/19 10:52:34;;;;;;;3.77;2.80;;;5.00;99.90;;;;;;5062599;28;20455;-82
2021/12/19 10:55:02;;;;;;;3.30;2.40;;;5.10;99.90;;;;;;5065584;28;20492;-81
2021/12/19 10:57:36;;;;;;;3.33;3.03;;;5.10;99.90;;;;;;5066935;28;20452;-78
2021/12/19 11:00:07;;;;;;;3.93;3.30;;;4.90;99.90;;;;;;5068014;28;20456;-80
2021/12/19 11:02:39;;;;;;;3.90;2.93;;;4.70;99.90;;;;;;5069156;28;20478;-88
2021/12/19 11:05:07;;;;;;;5.30;2.70;;;4.70;99.90;;;;;;5063974;28;20440;-90
2021/12/19 11:07:35;;;;;;;3.70;2.80;;;4.70;99.90;;;;;;5076739;28;20451;-91
2021/12/19 11:10:02;;;;;;;5.17;3.90;;;4.70;99.90;;;;;;5068794;28;20900;-89
2021/12/19 11:12:28;;;;;;;3.10;2.80;;;4.80;99.90;;;;;;5066263;28;20461;-88
2021/12/19 11:14:57;;;;;;;3.53;3.23;;;4.80;99.90;;;;;;5066928;28;20475;-89
2021/12/19 11:17:26;;;;;;;8.93;3.57;;;4.80;99.90;;;;;;5069841;28;20452;-87
2021/12/19 11:19:56;;;;;;;4.30;3.90;;;4.70;99.90;;;;;;5068193;28;20449;-90
2021/12/19 11:22:25;;;;;;;3.50;2.97;;;4.70;99.90;;;;;;5064521;28;20474;-89
2021/12/19 11:24:53;;;;;;;5.53;4.23;;;4.70;99.90;;;;;;5058454;28;20454;-88
2021/12/19 11:27:20;;;;;;;6.93;4.80;;;4.80;99.90;;;;;;5095548;28;20979;-89
2021/12/19 11:29:49;;;;;;;5.03;4.53;;;4.90;99.90;;;;;;5102851;28;20449;-92
2021/12/19 11:32:20;;;;;;;5.07;3.73;;;5.00;99.90;;;;;;5117034;28;20472;-93
2021/12/19 11:34:59;;;;;;;3.80;3.40;;;5.10;99.90;;;;;;5110192;28;20414;-92
2021/12/19 11:37:28;;;;;;;5.90;4.10;;;5.10;99.90;;;;;;5106083;28;20438;-87
2021/12/19 11:39:57;;;;;;;5.17;3.50;;;5.20;99.90;;;;;;5116253;28;20446;-91
2021/12/19 11:42:32;;;;;;;5.43;4.10;;;5.20;99.90;;;;;;5107003;28;20433;-89
2021/12/19 11:45:21;;;;;;;5.80;4.20;;;5.30;99.90;;;;;;5103472;28;20442;-92
2021/12/19 11:47:55;;;;;;;4.60;3.27;;;5.30;99.90;;;;;;5101121;28;20477;-92
2021/12/19 11:50:27;;;;;;;4.20;3.60;;;5.30;99.90;;;;;;5099849;28;20474;-92
2021/12/19 11:52:57;;;;;;;4.27;3.17;;;5.10;99.90;;;;;;5109451;28;20820;-92
2021/12/19 11:55:29;;;;;;;4.67;3.27;;;5.00;99.90;;;;;;5099451;28;20519;-88
2021/12/19 11:58:20;;;;;;;7.17;5.10;;;4.90;99.90;;;;;;5097753;28;20450;-88
2021/12/19 12:00:50;;;;;;;5.00;4.33;;;4.90;99.90;;;;;;5112399;28;20536;-91
2021/12/19 12:03:32;;;;;;;5.30;4.03;;;4.90;99.90;;;;;;5117868;28;20447;-89
2021/12/19 12:06:28;;;;;;;5.57;5.07;;;4.90;99.90;;;;;;5108441;28;20463;-92
2021/12/19 12:09:07;;;;;;;5.57;4.50;;;4.90;99.90;;;;;;5112938;28;20441;-90
2021/12/19 12:11:36;;;;;;;5.43;4.67;;;4.70;99.90;;;;;;5101651;28;20472;-90
2021/12/19 12:14:22;;;;;;;6.63;4.30;;;4.70;99.90;;;;;;5100347;28;20445;-91
2021/12/19 12:16:54;;;;;;;6.47;5.00;;;4.70;99.90;;;;;;5088922;28;20492;-90
2021/12/19 12:19:39;;;;;;;5.30;4.37;;;4.90;99.90;;;;;;5059317;28;20569;-90
2021/12/19 12:22:31;;;;;;;6.93;5.10;;;4.80;99.90;;;;;;5058970;28;20463;-90
2021/12/19 12:25:20;;;;;;;6.80;5.43;;;4.80;99.90;;;;;;5059568;28;20444;-89
2021/12/19 12:27:50;;;;;;;5.43;4.70;;;4.70;99.90;;;;;;5088890;28;20442;-89
2021/12/19 12:30:20;;;;;;;5.83;4.40;;;4.70;99.90;;;;;;5081345;28;20470;-90
2021/12/19 12:32:47;;;;;;;7.03;5.37;;;4.70;99.90;;;;;;5103709;28;20454;-89
2021/12/19 12:35:17;;;;;;;5.60;4.93;;;4.80;99.90;;;;;;5104608;28;20482;-89
2021/12/19 12:37:44;;;;;;;6.77;4.43;;;4.80;99.90;;;;;;5097251;28;20439;-88
2021/12/19 12:40:24;;;;;;;7.60;4.40;;;4.70;99.90;;;;;;5096836;28;20471;-87
2021/12/19 12:42:59;;;;;;;5.10;4.37;;;4.60;99.90;;;;;;5079945;28;20448;-88
2021/12/19 12:45:26;;;;;;;6.63;5.80;;;4.60;99.90;;;;;;5065005;28;20432;-87
2021/12/19 12:47:52;;;;;;;7.93;5.90;;;4.70;99.90;;;;;;5064118;28;20446;-87
2021/12/19 12:50:21;;;;;;;9.80;6.47;;;4.70;99.90;;;;;;5072990;28;20464;-87
2021/12/19 12:52:48;;;;;;;8.50;6.30;;;4.60;99.90;;;;;;5066349;28;20428;-88
2021/12/19 12:55:15;;;;;;;8.00;6.30;;;4.70;99.90;;;;;;5079049;28;20482;-86
2021/12/19 12:57:44;;;;;;;8.40;5.07;;;4.80;99.90;;;;;;5082545;28;20443;-87
2021/12/19 13:00:19;;;;;;;7.57;5.83;;;4.90;99.90;;;;;;5089074;28;20468;-87
2021/12/19 13:02:54;;;;;;;7.53;6.30;;;4.90;99.90;;;;;;5078183;28;20447;-88
2021/12/19 13:05:22;;;;;;;7.07;6.37;;;4.80;99.90;;;;;;5073347;28;20432;-88
2021/12/19 13:07:49;;;;;;;6.93;5.60;;;4.70;99.90;;;;;;5077032;28;20417;-87
2021/12/19 13:10:16;;;;;;;6.80;5.60;;;4.70;99.90;;;;;;5087539;28;20470;-87
2021/12/19 13:12:45;;;;;;;7.80;6.10;;;4.70;99.90;;;;;;5104274;28;20462;-85
2021/12/19 13:15:13;;;;;;;7.30;5.10;;;4.70;99.90;;;;;;5115969;28;20457;-90
2021/12/19 13:17:42;;;;;;;7.00;5.27;;;4.70;99.90;;;;;;5115964;28;20438;-89
2021/12/19 13:20:10;;;;;;;6.57;5.60;;;4.70;99.90;;;;;;5107178;28;20450;-88
2021/12/19 13:22:42;;;;;;;8.17;6.00;;;4.70;99.90;;;;;;5108694;28;20461;-88
2021/12/19 13:25:12;;;;;;;6.73;5.30;;;4.70;99.90;;;;;;5109469;28;20453;-86
2021/12/19 13:27:41;;;;;;;7.07;6.27;;;4.70;99.90;;;;;;5089563;28;20446;-87
2021/12/19 13:30:12;;;;;;;10.63;6.97;;;4.80;99.90;;;;;;5059286;28;20980;-88
2021/12/19 13:32:41;;;;;;;10.47;7.40;;;4.90;99.90;;;;;;5061275;28;20451;-87
2021/12/19 13:35:13;;;;;;;8.50;6.60;;;4.90;99.90;;;;;;5058137;28;20443;-88
2021/12/19 13:37:53;;;;;;;9.03;6.07;;;4.90;99.90;;;;;;5066284;28;20527;-89
2021/12/19 13:40:22;;;;;;;10.50;6.33;;;5.00;99.90;;;;;;5059988;28;20513;-87